Aviation Digital Data Service (ADDS)

Output produced by METARs form (2217 UTC 24 March 2019)
found at http://www.aviationweather.gov/metar/data/
 
TAF MTCH 241700Z 2418/2518 01010KT 9999 SCT032CB 
     PROB30 
     TEMPO 2502/2509 08012KT 4500 TSRA 
     BECMG 2210/2512 VRB02KT 9000 NSW FEW016 SCT020 
     BECMG2513/2517 10012KT 9999 SCT024
       
TAF MTPP 241700Z 2418/2518 11007KT 9999 SCT028 
     PROB40 
     TEMPO 2503/2509 VRB02KT 4800 TSRA SCT024CB SCT018 
     BECMG 2510/2512 10010KT 9000 NSW FEW020 SCT050 
     BECMG 2513/2517 09012KT 8000 SCT022